Strona główna
METAR-TAF:

METAR-TAF

Lotnisko :

Vlissingen, Holandia

Szerokość geograficzna: 51-27N, Długość geograficzna: 3-36E, wysokość: 10 m

Aktualna obserwacja pogody

Raport powstał 34 minut temu, godzina 16:55 UTC
Wiatr 14 kt od północno-północny zachód, zmienny między północny zachód i północ
Temperatura 9°C
Wilgotność 76%
Ciśnienie 1010 hPa
Widzialność 10 km lub więcej

METAR: EHFS 181655Z AUTO 34014KT 310V010 9999 FEW027/// SCT031/// BKN037/// 09/05 Q1010 REDZ W///H///

czas: 18:29 (17:29 UTC)


TAF: brakujący

Obserwacja i prognoza pogody dla ponad 4000 lotnisk (raport METAR i TAF).

Dostępne stacje oznaczono żółtymi i czerwonymi punktami na mapie.

Najedź kursorem aby zobaczyć nazwę stacji.

Kliknij aby zobaczyć obserwacje i prognozy pogody.

Aby zmienić mapę: kliknij na zielony przycisk z czarnym krzyżykiem, aby powiększyć; na zielony przycisk z myślnikiem, aby pomniejszyć; na zielone strzałki, aby przejść do map sąsiednich.


METAR-TAF: